createdAt,value
2023-03-12T00:00:21.251Z,3
2023-03-12T00:01:21.288Z,3
2023-03-12T00:02:21.383Z,3
2023-03-12T00:03:21.398Z,3
2023-03-12T00:04:21.398Z,3
2023-03-12T00:05:21.429Z,3
2023-03-12T00:06:21.465Z,3
2023-03-12T00:07:21.510Z,3
2023-03-12T00:08:21.543Z,3
2023-03-12T00:09:21.578Z,2.92857
2023-03-12T00:10:21.622Z,3
2023-03-12T00:11:21.661Z,2.92857
2023-03-12T00:12:21.699Z,2.92857
2023-03-12T00:13:21.739Z,2.92857
2023-03-12T00:14:21.771Z,2.92857
2023-03-12T00:15:21.806Z,2.92857
2023-03-12T00:16:21.947Z,2.92857
2023-03-12T00:17:21.878Z,2.92857
2023-03-12T00:18:21.909Z,2.92857
2023-03-12T00:19:21.945Z,2.92857
2023-03-12T00:20:21.986Z,2.92857
2023-03-12T00:21:22.059Z,2.92857
2023-03-12T00:22:22.058Z,2.92857
2023-03-12T00:23:22.103Z,2.92857
2023-03-12T00:24:22.128Z,2.92857
2023-03-12T00:25:22.166Z,2.92857
2023-03-12T00:26:22.210Z,2.92857
2023-03-12T00:27:22.223Z,2.92857
2023-03-12T00:28:22.262Z,2.92857
2023-03-12T00:29:22.290Z,2.92857
2023-03-12T00:30:22.332Z,2.92857
2023-03-12T00:31:22.436Z,2.92857
2023-03-12T00:32:22.485Z,2.92857
2023-03-12T00:33:22.439Z,2.92857
2023-03-12T00:34:22.475Z,2.92857
2023-03-12T00:35:22.517Z,2.92857
2023-03-12T00:36:22.554Z,2.92857
2023-03-12T00:37:22.603Z,3
2023-03-12T00:38:22.634Z,3
2023-03-12T00:39:22.666Z,3
2023-03-12T00:40:22.707Z,3
2023-03-12T00:41:22.752Z,3
2023-03-12T00:42:22.775Z,3
2023-03-12T00:43:22.821Z,3.07143
2023-03-12T00:44:22.849Z,3.07143
2023-03-12T00:45:22.888Z,3.07143
2023-03-12T00:46:23.020Z,3.07143
2023-03-12T00:47:22.966Z,3.14286
2023-03-12T00:48:22.996Z,3.14286
2023-03-12T00:49:23.036Z,3.21429
2023-03-12T00:50:23.082Z,3.28571
2023-03-12T00:51:23.115Z,3.28571
2023-03-12T00:52:23.146Z,3.35714
2023-03-12T00:53:23.171Z,3.35714
2023-03-12T00:54:23.205Z,3.42857
2023-03-12T00:55:23.251Z,3.42857
2023-03-12T00:56:23.282Z,3.42857
2023-03-12T00:57:23.313Z,3.5
2023-03-12T00:58:23.354Z,3.5
2023-03-12T00:59:23.385Z,3.5
2023-03-12T01:00:23.424Z,3.57143
2023-03-12T01:01:23.458Z,3.57143
2023-03-12T01:02:23.507Z,3.57143
2023-03-12T01:03:23.529Z,3.57143
2023-03-12T01:04:23.603Z,3.64286
2023-03-12T01:05:23.608Z,3.64286
2023-03-12T01:06:23.655Z,3.64286
2023-03-12T01:07:23.678Z,3.64286
2023-03-12T01:08:23.746Z,3.64286
2023-03-12T01:09:23.773Z,3.71429
2023-03-12T01:10:23.806Z,3.71429
2023-03-12T01:11:23.836Z,3.71429
2023-03-12T01:12:23.859Z,3.78571
2023-03-12T01:13:23.900Z,3.78571
2023-03-12T01:14:23.939Z,3.78571
2023-03-12T01:15:23.986Z,3.78571
2023-03-12T01:16:24.122Z,3.78571
2023-03-12T01:17:24.046Z,3.78571
2023-03-12T01:18:24.089Z,3.78571
2023-03-12T01:19:24.119Z,3.78571
2023-03-12T01:20:24.142Z,3.78571
2023-03-12T01:21:24.189Z,3.78571
2023-03-12T01:22:24.222Z,3.71429
2023-03-12T01:23:24.249Z,3.71429
2023-03-12T01:24:24.285Z,3.64286
2023-03-12T01:25:24.323Z,3.64286
2023-03-12T01:26:24.364Z,3.64286
2023-03-12T01:27:24.398Z,3.57143
2023-03-12T01:28:24.435Z,3.57143
2023-03-12T01:29:24.474Z,3.5
2023-03-12T01:30:24.515Z,3.5
2023-03-12T01:31:24.571Z,3.5
2023-03-12T01:32:24.609Z,3.5
2023-03-12T01:33:24.622Z,3.5
2023-03-12T01:34:24.658Z,3.42857
2023-03-12T01:35:24.767Z,3.42857
2023-03-12T01:36:24.793Z,3.42857
2023-03-12T01:37:24.792Z,3.5
2023-03-12T01:38:24.812Z,3.5
2023-03-12T01:39:24.843Z,3.5
2023-03-12T01:40:24.875Z,3.57143
2023-03-12T01:41:24.907Z,3.57143
2023-03-12T01:42:24.958Z,3.57143
2023-03-12T01:43:25.005Z,3.57143
2023-03-12T01:44:25.003Z,3.64286
2023-03-12T01:45:25.179Z,3.64286
2023-03-12T01:46:25.078Z,3.71429
2023-03-12T01:47:25.104Z,3.71429
2023-03-12T01:48:25.144Z,3.71429
2023-03-12T01:49:25.178Z,3.71429
2023-03-12T01:50:25.239Z,3.71429
2023-03-12T01:51:25.262Z,3.71429
2023-03-12T01:52:25.308Z,3.78571
2023-03-12T01:53:25.337Z,3.78571
2023-03-12T01:54:25.392Z,3.78571
2023-03-12T01:55:25.426Z,3.78571
2023-03-12T01:56:25.441Z,3.78571
2023-03-12T01:57:25.492Z,3.78571
2023-03-12T01:58:25.512Z,3.85714
2023-03-12T01:59:25.556Z,3.85714
2023-03-12T02:00:25.584Z,3.85714
2023-03-12T02:01:25.719Z,3.85714
2023-03-12T02:02:25.654Z,3.85714
2023-03-12T02:03:25.698Z,3.85714
2023-03-12T02:04:25.729Z,3.85714
2023-03-12T02:05:25.767Z,3.85714
2023-03-12T02:06:25.805Z,3.85714
2023-03-12T02:07:25.846Z,3.85714
2023-03-12T02:08:25.890Z,3.85714
2023-03-12T02:09:25.913Z,3.85714
2023-03-12T02:10:25.946Z,3.85714
2023-03-12T02:11:25.986Z,3.85714
2023-03-12T02:12:26.024Z,3.85714
2023-03-12T02:13:26.059Z,3.85714
2023-03-12T02:14:26.098Z,3.85714
2023-03-12T02:15:26.133Z,3.78571
2023-03-12T02:16:26.201Z,3.78571
2023-03-12T02:17:26.209Z,3.78571
2023-03-12T02:18:26.247Z,3.71429
2023-03-12T02:19:26.274Z,3.71429
2023-03-12T02:20:26.311Z,3.71429
2023-03-12T02:21:26.334Z,3.64286
2023-03-12T02:22:26.375Z,3.64286
2023-03-12T02:23:26.406Z,3.64286
2023-03-12T02:24:26.455Z,3.64286
2023-03-12T02:25:26.484Z,3.57143
2023-03-12T02:26:26.521Z,3.57143
2023-03-12T02:27:26.551Z,3.57143
2023-03-12T02:28:26.592Z,3.5
2023-03-12T02:29:26.605Z,3.5
2023-03-12T02:30:26.657Z,3.5
2023-03-12T02:31:26.735Z,3.5
2023-03-12T02:32:26.839Z,3.5
2023-03-12T02:33:26.765Z,3.5
2023-03-12T02:34:26.822Z,3.5
2023-03-12T02:35:26.837Z,3.5
2023-03-12T02:36:26.872Z,3.5
2023-03-12T02:37:26.918Z,3.5
2023-03-12T02:38:26.959Z,3.5
2023-03-12T02:39:26.999Z,3.5
2023-03-12T02:40:27.041Z,3.5
2023-03-12T02:41:27.072Z,3.5
2023-03-12T02:42:27.112Z,3.5
2023-03-12T02:43:27.146Z,3.42857
2023-03-12T02:44:27.178Z,3.42857
2023-03-12T02:45:27.217Z,3.42857
2023-03-12T02:46:27.262Z,3.42857
2023-03-12T02:47:27.454Z,3.35714
2023-03-12T02:48:27.336Z,3.35714
2023-03-12T02:49:27.378Z,3.35714
2023-03-12T02:50:27.409Z,3.35714
2023-03-12T02:51:27.444Z,3.35714
2023-03-12T02:52:27.476Z,3.35714
2023-03-12T02:53:27.519Z,3.35714
2023-03-12T02:54:27.548Z,3.28571
2023-03-12T02:55:27.590Z,3.28571
2023-03-12T02:56:27.658Z,3.28571
2023-03-12T02:57:27.671Z,3.28571
2023-03-12T02:58:27.717Z,3.28571
2023-03-12T02:59:27.742Z,3.21429
2023-03-12T03:00:27.770Z,3.21429
2023-03-12T03:01:27.904Z,3.21429
2023-03-12T03:02:27.860Z,3.21429
2023-03-12T03:03:27.908Z,3.21429
2023-03-12T03:04:28.066Z,3.14286
2023-03-12T03:05:27.967Z,3.14286
2023-03-12T03:06:28.007Z,3.14286
2023-03-12T03:07:28.041Z,3.14286
2023-03-12T03:08:28.081Z,3.07143
2023-03-12T03:09:28.117Z,3.07143
2023-03-12T03:10:28.168Z,3.07143
2023-03-12T03:11:28.188Z,3.07143
2023-03-12T03:12:28.222Z,3.07143
2023-03-12T03:13:28.264Z,3
2023-03-12T03:14:28.289Z,3
2023-03-12T03:15:28.423Z,3
2023-03-12T03:16:28.366Z,3
2023-03-12T03:17:28.415Z,3
2023-03-12T03:18:28.449Z,3
2023-03-12T03:19:28.493Z,3
2023-03-12T03:20:28.532Z,3
2023-03-12T03:21:28.572Z,2.92857
2023-03-12T03:22:28.612Z,2.92857
2023-03-12T03:23:28.656Z,2.92857
2023-03-12T03:24:28.692Z,2.92857
2023-03-12T03:25:28.734Z,2.92857
2023-03-12T03:26:28.771Z,2.85714
2023-03-12T03:27:28.805Z,2.85714
2023-03-12T03:28:28.845Z,2.85714
2023-03-12T03:29:28.899Z,2.85714
2023-03-12T03:30:28.926Z,2.85714
2023-03-12T03:31:29.074Z,2.85714
2023-03-12T03:32:29.027Z,2.85714
2023-03-12T03:33:29.028Z,2.85714
2023-03-12T03:34:29.080Z,2.85714
2023-03-12T03:35:29.171Z,2.85714
2023-03-12T03:36:29.161Z,2.85714
2023-03-12T03:37:29.197Z,2.78571
2023-03-12T03:38:29.225Z,2.78571
2023-03-12T03:39:29.272Z,2.78571
2023-03-12T03:40:29.302Z,2.78571
2023-03-12T03:41:29.336Z,2.78571
2023-03-12T03:42:29.384Z,2.78571
2023-03-12T03:43:29.420Z,2.78571
2023-03-12T03:44:29.447Z,2.71429
2023-03-12T03:45:29.491Z,2.78571
2023-03-12T03:46:29.569Z,2.78571
2023-03-12T03:47:29.559Z,2.71429
2023-03-12T03:48:29.593Z,2.71429
2023-03-12T03:49:29.637Z,2.71429
2023-03-12T03:50:29.668Z,2.71429
2023-03-12T03:51:29.720Z,2.71429
2023-03-12T03:52:29.749Z,2.71429
2023-03-12T03:53:29.776Z,2.71429
2023-03-12T03:54:29.817Z,2.71429
2023-03-12T03:55:29.855Z,2.71429
2023-03-12T03:56:29.887Z,2.71429
2023-03-12T03:57:29.916Z,2.64286
2023-03-12T03:58:29.950Z,2.64286
2023-03-12T03:59:29.984Z,2.64286
2023-03-12T04:00:30.022Z,2.64286
2023-03-12T04:01:30.055Z,2.64286
2023-03-12T04:02:30.093Z,2.64286
2023-03-12T04:03:30.157Z,2.64286
2023-03-12T04:04:30.157Z,2.64286
2023-03-12T04:05:30.231Z,2.64286
2023-03-12T04:06:30.230Z,2.64286
2023-03-12T04:07:30.262Z,2.64286
2023-03-12T04:08:30.302Z,2.64286
2023-03-12T04:09:30.340Z,2.64286
2023-03-12T04:10:30.371Z,2.64286
2023-03-12T04:11:30.410Z,2.64286
2023-03-12T04:12:30.458Z,2.64286
2023-03-12T04:13:30.502Z,2.64286
2023-03-12T04:14:30.537Z,2.57143
2023-03-12T04:15:30.572Z,2.57143
2023-03-12T04:16:30.626Z,2.57143
2023-03-12T04:17:30.653Z,2.57143
2023-03-12T04:18:30.691Z,2.57143
2023-03-12T04:19:30.729Z,2.57143
2023-03-12T04:20:30.779Z,2.57143
2023-03-12T04:21:30.813Z,2.5
2023-03-12T04:22:30.860Z,2.5
2023-03-12T04:23:30.884Z,2.5
2023-03-12T04:24:30.928Z,2.5
2023-03-12T04:25:30.952Z,2.5
2023-03-12T04:26:31.001Z,2.5
2023-03-12T04:27:31.029Z,2.5
2023-03-12T04:28:31.078Z,2.5
2023-03-12T04:29:31.108Z,2.5
2023-03-12T04:30:31.146Z,2.5
2023-03-12T04:31:31.222Z,2.5
2023-03-12T04:32:31.242Z,2.5
2023-03-12T04:33:31.258Z,2.5
2023-03-12T04:34:31.329Z,2.5
2023-03-12T04:35:31.354Z,2.5
2023-03-12T04:36:31.386Z,2.5
2023-03-12T04:37:31.402Z,2.5
2023-03-12T04:38:31.454Z,2.42857
2023-03-12T04:39:31.488Z,2.42857
2023-03-12T04:40:31.516Z,2.42857
2023-03-12T04:41:31.551Z,2.42857
2023-03-12T04:42:31.586Z,2.42857
2023-03-12T04:43:31.620Z,2.42857
2023-03-12T04:44:31.647Z,2.42857
2023-03-12T04:45:31.685Z,2.42857
2023-03-12T04:46:31.733Z,2.42857
2023-03-12T04:47:31.761Z,2.42857
2023-03-12T04:48:31.806Z,2.42857
2023-03-12T04:49:31.863Z,2.35714
2023-03-12T04:50:31.876Z,2.35714
2023-03-12T04:51:31.915Z,2.35714
2023-03-12T04:52:31.947Z,2.35714
2023-03-12T04:53:32.068Z,2.35714
2023-03-12T04:54:32.032Z,2.35714
2023-03-12T04:55:32.065Z,2.35714
2023-03-12T04:56:32.098Z,2.35714
2023-03-12T04:57:32.135Z,2.35714
2023-03-12T04:58:32.172Z,2.35714
2023-03-12T04:59:32.209Z,2.35714
2023-03-12T05:00:32.266Z,2.28571
2023-03-12T05:01:32.289Z,2.28571
2023-03-12T05:02:32.366Z,2.28571
2023-03-12T05:03:32.416Z,2.28571
2023-03-12T05:04:33.722Z,2.28571
2023-03-12T05:05:32.437Z,2.28571
2023-03-12T05:06:32.455Z,2.28571
2023-03-12T05:07:32.500Z,2.28571
2023-03-12T05:08:32.541Z,2.21429
2023-03-12T05:09:32.582Z,2.21429
2023-03-12T05:10:32.612Z,2.21429
2023-03-12T05:11:32.642Z,2.21429
2023-03-12T05:12:32.675Z,2.21429
2023-03-12T05:13:32.710Z,2.21429
2023-03-12T05:14:32.758Z,2.21429
2023-03-12T05:15:32.796Z,2.21429
2023-03-12T05:16:32.925Z,2.21429
2023-03-12T05:17:32.876Z,2.21429
2023-03-12T05:18:32.912Z,2.21429
2023-03-12T05:19:32.942Z,2.14286
2023-03-12T05:20:32.984Z,2.14286
2023-03-12T05:21:33.017Z,2.14286
2023-03-12T05:22:33.056Z,2.14286
2023-03-12T05:23:33.088Z,2.14286
2023-03-12T05:24:33.128Z,2.14286
2023-03-12T05:25:33.180Z,2.14286
2023-03-12T05:26:33.212Z,2.14286
2023-03-12T05:27:33.249Z,2.14286
2023-03-12T05:28:33.282Z,2.14286
2023-03-12T05:29:33.311Z,2.14286
2023-03-12T05:30:33.365Z,2.14286
2023-03-12T05:31:33.431Z,2.14286
2023-03-12T05:32:33.474Z,2.14286
2023-03-12T05:33:33.458Z,2.14286
2023-03-12T05:34:33.489Z,2.14286
2023-03-12T05:35:33.585Z,2.14286
2023-03-12T05:36:33.558Z,2.14286
2023-03-12T05:37:33.597Z,2.14286
2023-03-12T05:38:33.638Z,2.14286
2023-03-12T05:39:33.664Z,2.14286
2023-03-12T05:40:33.704Z,2.14286
2023-03-12T05:41:33.743Z,2.14286
2023-03-12T05:42:33.784Z,2.14286
2023-03-12T05:43:33.814Z,2.14286
2023-03-12T05:44:33.855Z,2.14286
2023-03-12T05:45:33.969Z,2.14286
2023-03-12T05:46:33.970Z,2.14286
2023-03-12T05:47:33.972Z,2.14286
2023-03-12T05:48:34.007Z,2.21429
2023-03-12T05:49:34.058Z,2.21429
2023-03-12T05:50:34.078Z,2.21429
2023-03-12T05:51:34.123Z,2.21429
2023-03-12T05:52:34.152Z,2.21429
2023-03-12T05:53:34.196Z,2.21429
2023-03-12T05:54:34.210Z,2.21429
2023-03-12T05:55:34.253Z,2.21429
2023-03-12T05:56:34.290Z,2.21429
2023-03-12T05:57:34.333Z,2.21429
2023-03-12T05:58:34.358Z,2.21429
2023-03-12T05:59:34.401Z,2.21429
2023-03-12T06:00:34.445Z,2.21429
2023-03-12T06:01:34.482Z,2.21429
2023-03-12T06:02:34.706Z,2.21429
2023-03-12T06:03:34.572Z,2.28571
2023-03-12T06:04:34.593Z,2.28571
2023-03-12T06:05:34.627Z,2.28571
2023-03-12T06:06:34.673Z,2.35714
2023-03-12T06:07:34.702Z,2.35714
2023-03-12T06:08:34.738Z,2.35714
2023-03-12T06:09:34.768Z,2.42857
2023-03-12T06:10:34.811Z,2.42857
2023-03-12T06:11:34.837Z,2.42857
2023-03-12T06:12:34.881Z,2.5
2023-03-12T06:13:34.921Z,2.5
2023-03-12T06:14:34.945Z,2.5
2023-03-12T06:15:34.976Z,2.57143
2023-03-12T06:16:35.048Z,2.57143
2023-03-12T06:17:35.053Z,2.64286
2023-03-12T06:18:35.084Z,2.64286
2023-03-12T06:19:35.116Z,2.71429
2023-03-12T06:20:35.141Z,2.78571
2023-03-12T06:21:35.176Z,2.85714
2023-03-12T06:22:35.217Z,2.85714
2023-03-12T06:23:35.232Z,2.92857
2023-03-12T06:24:35.267Z,3
2023-03-12T06:25:35.312Z,3.07143
2023-03-12T06:26:35.355Z,3.21429
2023-03-12T06:27:35.374Z,3.35714
2023-03-12T06:28:35.410Z,3.42857
2023-03-12T06:29:35.455Z,3.57143
2023-03-12T06:30:35.485Z,3.64286
2023-03-12T06:31:38.410Z,3.71429
2023-03-12T06:32:35.565Z,3.85714
2023-03-12T06:33:35.564Z,3.85714
2023-03-12T06:34:35.611Z,3.92857
2023-03-12T06:35:35.688Z,4
2023-03-12T06:36:35.692Z,4
2023-03-12T06:37:35.729Z,4.07143
2023-03-12T06:38:35.786Z,4.14286
2023-03-12T06:39:35.801Z,4.21429
2023-03-12T06:40:35.839Z,4.35714
2023-03-12T06:41:35.873Z,4.5
2023-03-12T06:42:35.906Z,4.5
2023-03-12T06:43:35.947Z,4.57143
2023-03-12T06:44:35.985Z,4.64286
2023-03-12T06:45:36.028Z,4.78571
2023-03-12T06:46:36.111Z,4.85714
2023-03-12T06:47:36.127Z,5
2023-03-12T06:48:36.135Z,5.07143
2023-03-12T06:49:36.164Z,5.14286
2023-03-12T06:50:36.213Z,5.21429
2023-03-12T06:51:36.246Z,5.35714
2023-03-12T06:52:36.288Z,5.42857
2023-03-12T06:53:36.317Z,5.5
2023-03-12T06:54:36.353Z,5.57143
2023-03-12T06:55:36.393Z,5.64286
2023-03-12T06:56:36.438Z,5.71429
2023-03-12T06:57:36.464Z,5.78571
2023-03-12T06:58:36.498Z,5.92857
2023-03-12T06:59:36.545Z,6
2023-03-12T07:00:36.573Z,6.14286
2023-03-12T07:01:36.626Z,6.28571
2023-03-12T07:02:36.757Z,6.35714
2023-03-12T07:03:36.715Z,6.5
2023-03-12T07:04:36.764Z,6.57143
2023-03-12T07:05:36.780Z,6.64286
2023-03-12T07:06:36.818Z,6.71429
2023-03-12T07:07:36.846Z,6.71429
2023-03-12T07:08:36.881Z,6.78571
2023-03-12T07:09:36.914Z,6.92857
2023-03-12T07:10:36.968Z,7
2023-03-12T07:11:36.996Z,7.21429
2023-03-12T07:12:37.026Z,7.42857
2023-03-12T07:13:37.064Z,7.64286
2023-03-12T07:14:37.097Z,7.78571
2023-03-12T07:15:37.130Z,7.78571
2023-03-12T07:16:37.167Z,7.71429
2023-03-12T07:17:37.217Z,7.64286
2023-03-12T07:18:37.237Z,7.57143
2023-03-12T07:19:37.278Z,7.5
2023-03-12T07:20:37.313Z,7.42857
2023-03-12T07:21:37.361Z,7.42857
2023-03-12T07:22:37.399Z,7.57143
2023-03-12T07:23:37.442Z,7.64286
2023-03-12T07:24:37.469Z,7.71429
2023-03-12T07:25:37.504Z,7.71429
2023-03-12T07:26:37.541Z,7.71429
2023-03-12T07:27:37.579Z,7.71429
2023-03-12T07:28:37.616Z,7.71429
2023-03-12T07:29:37.666Z,7.78571
2023-03-12T07:30:37.705Z,7.78571
2023-03-12T07:31:37.842Z,7.85714
2023-03-12T07:32:37.810Z,7.85714
2023-03-12T07:33:37.967Z,7.92857
2023-03-12T07:34:37.899Z,8
2023-03-12T07:35:37.919Z,8.07143
2023-03-12T07:36:38.081Z,8.07143
2023-03-12T07:37:37.929Z,8.14286
2023-03-12T07:38:37.985Z,8.21429
2023-03-12T07:39:38.107Z,8.21429
2023-03-12T07:40:38.047Z,8.35714
2023-03-12T07:41:38.089Z,8.42857
2023-03-12T07:42:38.118Z,8.5
2023-03-12T07:43:38.163Z,8.57143
2023-03-12T07:44:38.193Z,8.71429
2023-03-12T07:45:38.290Z,8.92857
2023-03-12T07:46:38.357Z,9.07143
2023-03-12T07:47:38.382Z,9.14286
2023-03-12T07:48:38.336Z,9.14286
2023-03-12T07:49:38.411Z,9.07143
2023-03-12T07:50:38.413Z,9
2023-03-12T07:51:38.454Z,9
2023-03-12T07:52:38.492Z,9.07143
2023-03-12T07:53:38.538Z,9.14286
2023-03-12T07:54:38.598Z,9.21429
2023-03-12T07:55:38.688Z,9.28571
2023-03-12T07:56:38.830Z,9.42857
2023-03-12T07:57:38.691Z,9.5
2023-03-12T07:58:38.881Z,9.5
2023-03-12T07:59:38.728Z,9.5
2023-03-12T08:00:38.774Z,9.5
2023-03-12T08:01:38.866Z,9.42857
2023-03-12T08:02:38.923Z,9.28571
2023-03-12T08:03:39.151Z,9.21429
2023-03-12T08:04:39.099Z,9.21429
2023-03-12T08:05:39.102Z,9.21429
2023-03-12T08:06:39.082Z,9.21429
2023-03-12T08:07:39.032Z,9.21429
2023-03-12T08:08:39.108Z,9.14286
2023-03-12T08:09:39.093Z,9.14286
2023-03-12T08:10:39.173Z,9.07143
2023-03-12T08:11:39.167Z,9
2023-03-12T08:12:39.205Z,8.92857
2023-03-12T08:13:39.232Z,8.78571
2023-03-12T08:14:39.311Z,8.64286
2023-03-12T08:15:39.290Z,8.57143
2023-03-12T08:16:39.372Z,8.5
2023-03-12T08:17:39.380Z,8.35714
2023-03-12T08:18:39.437Z,8.35714
2023-03-12T08:19:39.448Z,8.28571
2023-03-12T08:20:39.482Z,8.28571
2023-03-12T08:21:39.527Z,8.21429
2023-03-12T08:22:39.568Z,8.14286
2023-03-12T08:23:39.602Z,8.14286
2023-03-12T08:24:39.635Z,8.07143
2023-03-12T08:25:39.676Z,8.07143
2023-03-12T08:26:39.711Z,8.07143
2023-03-12T08:27:39.739Z,8.07143
2023-03-12T08:28:39.778Z,8
2023-03-12T08:29:39.806Z,8
2023-03-12T08:30:39.852Z,8.07143
2023-03-12T08:31:50.384Z,8.07143
2023-03-12T08:32:40.077Z,8.07143
2023-03-12T08:33:39.965Z,8.07143
2023-03-12T08:34:40.011Z,8.07143
2023-03-12T08:35:40.114Z,8.14286
2023-03-12T08:36:40.071Z,8.14286
2023-03-12T08:37:40.103Z,8.14286
2023-03-12T08:38:40.140Z,8.14286
2023-03-12T08:39:40.170Z,8.14286
2023-03-12T08:40:40.208Z,8.14286
2023-03-12T08:41:40.237Z,8.14286
2023-03-12T08:42:40.278Z,8.14286
2023-03-12T08:43:40.308Z,8.21429
2023-03-12T08:44:40.361Z,8.28571
2023-03-12T08:45:40.471Z,8.35714
2023-03-12T08:46:40.421Z,8.42857
2023-03-12T08:47:40.457Z,8.42857
2023-03-12T08:48:40.496Z,8.5
2023-03-12T08:49:40.528Z,8.5
2023-03-12T08:50:40.604Z,8.57143
2023-03-12T08:51:40.602Z,8.57143
2023-03-12T08:52:40.632Z,8.64286
2023-03-12T08:53:40.672Z,8.64286
2023-03-12T08:54:40.708Z,8.64286
2023-03-12T08:55:40.752Z,8.64286
2023-03-12T08:56:40.790Z,8.64286
2023-03-12T08:57:40.836Z,8.64286
2023-03-12T08:58:40.874Z,8.64286
2023-03-12T08:59:40.892Z,8.71429
2023-03-12T09:00:40.937Z,8.71429
2023-03-12T09:01:43.622Z,8.71429
2023-03-12T09:02:41.007Z,8.71429
2023-03-12T09:03:41.054Z,8.64286
2023-03-12T09:04:41.212Z,8.57143
2023-03-12T09:05:41.097Z,8.57143
2023-03-12T09:06:41.139Z,8.64286
2023-03-12T09:07:41.173Z,8.78571
2023-03-12T09:08:41.198Z,9
2023-03-12T09:09:41.220Z,9.14286
2023-03-12T09:10:41.260Z,9.21429
2023-03-12T09:11:41.297Z,9.28571
2023-03-12T09:12:41.332Z,9.28571
2023-03-12T09:14:03.906Z,9.21429
2023-03-12T09:15:03.780Z,9.14286
2023-03-12T09:15:41.450Z,9.07143
2023-03-12T09:16:41.578Z,9
2023-03-12T09:17:41.512Z,9
2023-03-12T09:18:41.549Z,8.92857
2023-03-12T09:19:41.586Z,8.85714
2023-03-12T09:20:41.625Z,8.85714
2023-03-12T09:21:41.662Z,8.78571
2023-03-12T09:22:41.690Z,8.78571
2023-03-12T09:23:41.716Z,8.71429
2023-03-12T09:24:41.763Z,8.71429
2023-03-12T09:25:41.792Z,8.64286
2023-03-12T09:26:41.838Z,8.64286
2023-03-12T09:27:41.876Z,8.64286
2023-03-12T09:28:41.906Z,8.71429
2023-03-12T09:29:58.800Z,8.71429
2023-03-12T09:30:42.020Z,8.71429
2023-03-12T09:31:42.016Z,8.78571
2023-03-12T09:32:42.131Z,8.78571
2023-03-12T09:33:42.093Z,8.78571
2023-03-12T09:34:42.119Z,8.78571
2023-03-12T09:35:42.188Z,8.78571
2023-03-12T09:36:42.195Z,8.78571
2023-03-12T09:37:42.229Z,8.71429
2023-03-12T09:38:42.269Z,8.71429
2023-03-12T09:39:42.296Z,8.71429
2023-03-12T09:40:42.356Z,8.64286
2023-03-12T09:41:42.377Z,8.64286
2023-03-12T09:42:42.408Z,8.64286
2023-03-12T09:43:42.445Z,8.57143
2023-03-12T09:44:42.483Z,8.57143
2023-03-12T09:45:42.529Z,8.57143
2023-03-12T09:46:42.572Z,8.5
2023-03-12T09:47:42.605Z,8.5
2023-03-12T09:48:42.649Z,8.5
2023-03-12T09:49:42.664Z,8.5
2023-03-12T09:50:42.705Z,8.5
2023-03-12T09:51:42.738Z,8.5
2023-03-12T09:52:42.783Z,8.5
2023-03-12T09:53:42.811Z,8.5
2023-03-12T09:54:42.839Z,8.5
2023-03-12T09:55:42.882Z,8.57143
2023-03-12T09:56:42.922Z,8.57143
2023-03-12T09:57:42.957Z,8.64286
2023-03-12T09:58:42.984Z,8.64286
2023-03-12T09:59:43.025Z,8.71429
2023-03-12T10:00:43.069Z,8.71429
2023-03-12T10:01:43.096Z,8.78571
2023-03-12T10:02:43.143Z,8.85714
2023-03-12T10:03:43.245Z,8.85714
2023-03-12T10:04:58.449Z,8.92857
2023-03-12T10:05:43.238Z,8.92857
2023-03-12T10:06:45.170Z,8.92857
2023-03-12T10:07:43.318Z,9
2023-03-12T10:08:43.350Z,9
2023-03-12T10:09:43.386Z,9
2023-03-12T10:10:43.421Z,9.07143
2023-03-12T10:11:43.457Z,9.07143
2023-03-12T10:12:44.500Z,9.07143
2023-03-12T10:13:43.553Z,9.14286
2023-03-12T10:14:43.562Z,9.14286
2023-03-12T10:15:43.720Z,9.21429
2023-03-12T10:16:43.627Z,9.28571
2023-03-12T10:17:43.711Z,9.35714
2023-03-12T10:18:44.772Z,9.42857
2023-03-12T10:19:43.742Z,9.5
2023-03-12T10:20:43.769Z,9.5
2023-03-12T10:21:43.801Z,9.57143
2023-03-12T10:22:43.842Z,9.57143
2023-03-12T10:23:43.869Z,9.64286
2023-03-12T10:24:43.916Z,9.64286
2023-03-12T10:25:43.951Z,9.64286
2023-03-12T10:26:43.976Z,9.71429
2023-03-12T10:27:44.025Z,9.71429
2023-03-12T10:28:44.056Z,9.78571
2023-03-12T10:29:44.780Z,9.78571
2023-03-12T10:30:44.171Z,9.85714
2023-03-12T10:31:44.166Z,9.78571
2023-03-12T10:32:44.241Z,9.85714
2023-03-12T10:33:44.236Z,9.85714
2023-03-12T10:34:44.275Z,9.85714
2023-03-12T10:35:44.358Z,9.85714
2023-03-12T10:36:44.342Z,9.85714
2023-03-12T10:37:44.385Z,9.85714
2023-03-12T10:38:44.428Z,9.85714
2023-03-12T10:39:44.466Z,9.85714
2023-03-12T10:40:44.487Z,9.85714
2023-03-12T10:41:44.563Z,9.85714
2023-03-12T10:42:44.593Z,9.85714
2023-03-12T10:43:44.598Z,9.85714
2023-03-12T10:44:44.636Z,9.78571
2023-03-12T10:45:44.674Z,9.78571
2023-03-12T10:46:44.820Z,9.78571
2023-03-12T10:47:44.748Z,9.78571
2023-03-12T10:48:44.775Z,9.78571
2023-03-12T10:49:44.815Z,9.78571
2023-03-12T10:50:44.852Z,9.71429
2023-03-12T10:51:44.882Z,9.71429
2023-03-12T10:52:44.913Z,9.71429
2023-03-12T10:53:45.095Z,9.71429
2023-03-12T10:54:45.000Z,9.78571
2023-03-12T10:55:45.023Z,9.78571
2023-03-12T10:56:45.060Z,9.78571
2023-03-12T10:57:45.087Z,9.85714
2023-03-12T10:58:45.135Z,9.85714
2023-03-12T10:59:45.162Z,9.85714
2023-03-12T11:00:45.199Z,9.85714
2023-03-12T11:01:45.311Z,9.92857
2023-03-12T11:02:45.271Z,9.92857
2023-03-12T11:03:45.310Z,10
2023-03-12T11:04:45.342Z,10
2023-03-12T11:05:45.381Z,10.0714
2023-03-12T11:06:45.411Z,10.1429
2023-03-12T11:07:45.440Z,10.2143
2023-03-12T11:08:45.475Z,10.2143
2023-03-12T11:09:45.515Z,10.2857
2023-03-12T11:10:45.546Z,10.2857
2023-03-12T11:11:45.588Z,10.2857
2023-03-12T11:12:45.623Z,10.2857
2023-03-12T11:13:45.653Z,10.3571
2023-03-12T11:14:45.683Z,10.3571
2023-03-12T11:15:45.751Z,10.3571
2023-03-12T11:16:45.758Z,10.3571
2023-03-12T11:17:45.790Z,10.2857
2023-03-12T11:18:45.826Z,10.2857
2023-03-12T11:19:45.874Z,10.2143
2023-03-12T11:20:45.910Z,10.2143
2023-03-12T11:21:45.942Z,10.2143
2023-03-12T11:22:45.973Z,10.1429
2023-03-12T11:23:46.008Z,10.1429
2023-03-12T11:24:46.049Z,10.1429
2023-03-12T11:25:46.081Z,10.1429
2023-03-12T11:26:46.122Z,10.1429
2023-03-12T11:27:46.182Z,10.1429
2023-03-12T11:28:46.191Z,10.1429
2023-03-12T11:29:46.284Z,10.1429
2023-03-12T11:30:46.342Z,10.1429
2023-03-12T11:31:47.353Z,10.1429
2023-03-12T11:32:46.377Z,10.1429
2023-03-12T11:33:46.374Z,10.1429
2023-03-12T11:34:46.409Z,10.1429
2023-03-12T11:35:46.497Z,10.2143
2023-03-12T11:36:46.493Z,10.2143
2023-03-12T11:37:46.526Z,10.2857
2023-03-12T11:38:46.574Z,10.2857
2023-03-12T11:39:46.607Z,10.2857
2023-03-12T11:40:46.648Z,10.2857
2023-03-12T11:41:46.683Z,10.2857
2023-03-12T11:42:46.733Z,10.3571
2023-03-12T11:43:46.765Z,10.3571
2023-03-12T11:44:46.796Z,10.3571
2023-03-12T11:45:46.846Z,10.4286
2023-03-12T11:46:46.942Z,10.4286
2023-03-12T11:47:46.997Z,10.5
2023-03-12T11:48:46.981Z,10.5
2023-03-12T11:49:49.580Z,10.5
2023-03-12T11:50:47.039Z,10.5714
2023-03-12T11:51:47.060Z,10.5714
2023-03-12T11:52:47.090Z,10.5714
2023-03-12T11:53:47.128Z,10.5714
2023-03-12T11:54:47.154Z,10.5714
2023-03-12T11:55:47.211Z,10.5714
2023-03-12T11:56:47.234Z,10.6429
2023-03-12T11:57:47.265Z,10.6429
2023-03-12T11:58:47.308Z,10.6429
2023-03-12T11:59:47.345Z,10.7143
2023-03-12T12:00:48.035Z,10.7143
2023-03-12T12:01:47.518Z,10.7143
2023-03-12T12:02:47.524Z,10.6429
2023-03-12T12:03:47.486Z,10.6429
2023-03-12T12:04:47.515Z,10.5714
2023-03-12T12:05:47.544Z,10.5714
2023-03-12T12:06:48.249Z,10.5714
2023-03-12T12:07:47.622Z,10.6429
2023-03-12T12:08:47.658Z,10.6429
2023-03-12T12:09:47.704Z,10.6429
2023-03-12T12:10:47.725Z,10.6429
2023-03-12T12:11:47.759Z,10.6429
2023-03-12T12:12:47.801Z,10.6429
2023-03-12T12:13:47.825Z,10.5714
2023-03-12T12:14:47.871Z,10.5714
2023-03-12T12:15:47.906Z,10.5714
2023-03-12T12:16:48.001Z,10.5714
2023-03-12T12:17:47.972Z,10.5714
2023-03-12T12:18:48.015Z,10.5714
2023-03-12T12:19:48.048Z,10.5714
2023-03-12T12:20:48.091Z,10.5714
2023-03-12T12:21:48.126Z,10.6429
2023-03-12T12:22:48.149Z,10.5714